McDowell, Virginia
Current Conditions -  °F | °C
As of 3:15 PM on Sunday 25 Jan 2015 (Local Time) from KVBW Reporting Station
Clear Clear  
Wind Chill: 40°   Ceiling: Unl
Heat Index: 44°   Visibility: 10mi
Dew Point: 33°   Wind: 8mph
Humidity: 65%   Direction: 210°SSW
Pressure: 29.78"   Gusts: NA
Location:  38.34°N, 79.49°W
Report Text: KVBW 252015Z AUTO 21007KT 10SM CLR 07/01 A2978 RMK AO2 T00670005
Loading
Personal Weather Stations






























Interactive Weather Map New forecast layout! Learn more

10-Day Weather Forecast

Advertisements
Track Severe Weather on mobile